Time;durP1;ratioP1;P1;durP2;ratioP2;P2;SDS_P1;SDS_P2;PMS_P1;PMS_P2;Temp;Humidity;BMP_temperature;BMP_pressure;BME280_temperature;BME280_humidity;BME280_pressure;Samples;Min_cycle;Max_cycle;Signal;HPM_P1;HPM_P2
2021/11/27 00:00:57;;;;;;;5.07;2.42;;;;;;;4.97;91.40;96414.09;4961146;28;20049;-68
2021/11/27 00:03:41;;;;;;;4.35;2.00;;;;;;;4.93;92.84;96424.84;4960318;28;20050;-68
2021/11/27 00:06:25;;;;;;;7.20;2.50;;;;;;;4.84;92.39;96400.16;4974246;28;20057;-68
2021/11/27 00:09:10;;;;;;;3.90;2.30;;;;;;;4.83;92.73;96394.25;4973896;28;20098;-68
2021/11/27 00:11:54;;;;;;;3.80;2.05;;;;;;;4.83;93.47;96388.31;4975009;28;20050;-68
2021/11/27 00:14:38;;;;;;;5.22;2.60;;;;;;;4.84;94.07;96398.41;4973883;28;20579;-68
2021/11/27 00:17:22;;;;;;;2.13;1.50;;;;;;;4.73;94.82;96413.31;4960492;28;20117;-66
2021/11/27 00:20:10;;;;;;;3.08;1.98;;;;;;;4.62;97.21;96417.03;4974087;28;20061;-69
2021/11/27 00:22:54;;;;;;;2.90;1.65;;;;;;;4.55;97.40;96430.63;4974860;28;20113;-67
2021/11/27 00:25:38;;;;;;;1.88;1.45;;;;;;;4.55;97.26;96384.50;4960544;28;20539;-68
2021/11/27 00:28:23;;;;;;;5.10;2.80;;;;;;;4.56;98.27;96397.16;4973977;28;20088;-68
2021/11/27 00:31:11;;;;;;;3.03;2.15;;;;;;;4.56;98.53;96391.25;4973864;28;20101;-67
2021/11/27 00:33:56;;;;;;;2.20;1.50;;;;;;;4.57;97.67;96388.50;4973829;28;20057;-69
2021/11/27 00:36:40;;;;;;;3.53;2.03;;;;;;;4.59;97.94;96407.09;4973900;28;20081;-69
2021/11/27 00:39:24;;;;;;;6.90;2.35;;;;;;;4.65;98.05;96380.00;4973514;28;20061;-68
2021/11/27 00:42:08;;;;;;;3.65;1.85;;;;;;;4.64;97.92;96379.22;4959741;28;20087;-69
2021/11/27 00:44:52;;;;;;;4.38;2.53;;;;;;;4.69;96.77;96376.94;4973987;28;20049;-69
2021/11/27 00:47:42;;;;;;;4.40;2.08;;;;;;;4.75;97.07;96375.50;4973503;28;20134;-69
2021/11/27 00:50:33;;;;;;;1.73;1.27;;;;;;;4.73;95.97;96365.41;4973398;28;20122;-68
2021/11/27 00:53:17;;;;;;;2.72;1.40;;;;;;;4.78;96.14;96365.72;4973615;28;20117;-69
2021/11/27 00:56:02;;;;;;;4.00;1.85;;;;;;;4.83;95.06;96378.06;4973882;28;20054;-69
2021/11/27 00:58:47;;;;;;;2.67;1.80;;;;;;;4.93;95.10;96348.69;4974213;28;20045;-69
2021/11/27 01:01:32;;;;;;;2.90;1.95;;;;;;;4.96;94.17;96330.41;4977178;28;20101;-69
2021/11/27 01:04:17;;;;;;;4.35;2.00;;;;;;;4.97;93.64;96342.25;4978382;28;20116;-69
2021/11/27 01:07:02;;;;;;;4.68;1.80;;;;;;;5.00;93.50;96319.66;4978407;28;20050;-69
2021/11/27 01:09:47;;;;;;;3.08;1.52;;;;;;;5.02;92.98;96327.97;4977091;28;20526;-69
2021/11/27 01:12:31;;;;;;;4.28;1.35;;;;;;;5.06;92.00;96324.13;4978059;28;20049;-69
2021/11/27 01:15:17;;;;;;;3.47;1.02;;;;;;;5.10;91.99;96310.00;4977117;28;20527;-68
2021/11/27 01:18:03;;;;;;;2.22;1.45;;;;;;;5.14;91.91;96306.13;4977225;28;20057;-69
2021/11/27 01:20:52;;;;;;;6.57;1.50;;;;;;;5.18;91.41;96304.84;4977004;28;20473;-69
2021/11/27 01:23:38;;;;;;;1.80;1.10;;;;;;;5.23;90.43;96324.84;4963473;28;20053;-69
2021/11/27 01:26:22;;;;;;;2.65;1.65;;;;;;;5.24;91.62;96319.53;4978083;28;20050;-66
2021/11/27 01:29:07;;;;;;;1.83;1.30;;;;;;;5.21;93.20;96313.94;4976885;28;20102;-69
2021/11/27 01:31:51;;;;;;;0.77;0.63;;;;;;;5.09;92.75;96299.88;4976899;28;20101;-69
2021/11/27 01:34:35;;;;;;;1.65;1.02;;;;;;;5.10;94.25;96322.00;4976944;28;20053;-69
2021/11/27 01:37:20;;;;;;;3.50;1.42;;;;;;;5.08;94.38;96295.72;4976782;28;20097;-69
2021/11/27 01:40:09;;;;;;;1.77;1.20;;;;;;;5.00;95.17;96299.13;4978141;28;20049;-68
2021/11/27 01:42:53;;;;;;;2.50;1.30;;;;;;;4.95;95.73;96309.06;4976593;28;20448;-69
2021/11/27 01:45:38;;;;;;;3.03;1.38;;;;;;;4.91;98.33;96311.34;4963262;28;20053;-69
2021/11/27 01:48:23;;;;;;;1.42;0.73;;;;;;;4.86;98.55;96295.69;4976832;28;20057;-68
2021/11/27 01:51:16;;;;;;;1.92;0.95;;;;;;;4.84;99.22;96293.28;4977690;28;20567;-69
2021/11/27 01:54:05;;;;;;;3.63;1.65;;;;;;;4.87;100.00;96279.31;4977690;28;20097;-67
2021/11/27 01:56:52;;;;;;;1.75;1.20;;;;;;;4.84;100.00;96288.13;4976424;28;20048;-68
2021/11/27 01:59:38;;;;;;;1.25;0.90;;;;;;;4.86;100.00;96283.63;4962881;28;20412;-69
2021/11/27 02:02:22;;;;;;;1.63;0.90;;;;;;;4.84;100.00;96292.47;5022632;23;20057;-63
2021/11/27 02:05:07;;;;;;;1.58;1.40;;;;;;;4.84;100.00;96289.88;4995951;28;20053;-65
2021/11/27 02:07:51;;;;;;;2.03;1.40;;;;;;;4.89;99.92;96305.59;4996808;28;20045;-65
2021/11/27 02:10:36;;;;;;;3.65;1.60;;;;;;;4.94;99.63;96286.97;4995362;28;20050;-65
2021/11/27 02:13:19;;;;;;;1.60;1.15;;;;;;;4.94;100.00;96288.75;4996942;28;20093;-65
2021/11/27 02:16:03;;;;;;;2.83;1.40;;;;;;;4.93;100.00;96287.16;4982139;28;20053;-64
2021/11/27 02:18:48;;;;;;;2.38;1.10;;;;;;;4.91;100.00;96283.97;4996448;28;20111;-65
2021/11/27 02:21:32;;;;;;;3.97;1.73;;;;;;;4.93;100.00;96281.19;4995566;28;20073;-66
2021/11/27 02:24:17;;;;;;;1.83;1.35;;;;;;;4.92;100.00;96270.16;4996569;28;20104;-63
2021/11/27 02:27:01;;;;;;;3.45;1.77;;;;;;;4.93;100.00;96264.84;4996433;28;20095;-63
2021/11/27 02:29:46;;;;;;;3.67;1.88;;;;;;;4.95;100.00;96267.25;4995469;28;20133;-65
2021/11/27 02:32:30;;;;;;;2.58;1.58;;;;;;;4.97;100.00;96252.50;4996276;28;20045;-63
2021/11/27 02:35:14;;;;;;;;;;;;;;;4.95;100.00;96259.56;4996826;28;20194;-62
2021/11/27 02:37:59;;;;;;;3.70;1.73;;;;;;;4.94;100.00;96263.88;4996005;28;20418;-63
2021/11/27 02:40:44;;;;;;;2.10;1.05;;;;;;;4.94;100.00;96268.22;4995941;28;20384;-64
2021/11/27 02:43:28;;;;;;;1.92;1.15;;;;;;;4.91;100.00;96281.38;4995781;28;20112;-65
2021/11/27 02:46:13;;;;;;;1.88;1.02;;;;;;;4.89;100.00;96267.13;4996255;28;20105;-63
2021/11/27 02:48:56;;;;;;;2.42;1.40;;;;;;;4.90;100.00;96253.34;4995959;28;20134;-64
2021/11/27 02:51:41;;;;;;;1.15;1.00;;;;;;;4.82;100.00;96253.38;4995541;28;20069;-63
2021/11/27 02:54:26;;;;;;;2.78;1.60;;;;;;;4.82;100.00;96253.38;4994817;28;20558;-64
2021/11/27 02:57:10;;;;;;;2.55;1.42;;;;;;;4.84;100.00;96259.94;4994511;28;20515;-63
2021/11/27 02:59:53;;;;;;;2.22;1.15;;;;;;;4.75;100.00;96257.53;4981056;28;20547;-65
2021/11/27 03:02:38;;;;;;;3.17;1.70;;;;;;;4.77;100.00;96255.63;4980614;28;20050;-64
2021/11/27 03:05:22;;;;;;;4.93;1.90;;;;;;;4.76;100.00;96259.19;4994343;28;20196;-63
2021/11/27 03:08:06;;;;;;;1.67;0.88;;;;;;;4.68;100.00;96256.63;4995590;28;20084;-63
2021/11/27 03:10:50;;;;;;;3.03;2.05;;;;;;;4.64;100.00;96250.22;4995559;28;20052;-65
2021/11/27 03:13:38;;;;;;;;;;;;;;;4.61;100.00;96265.94;4994549;28;20053;-63
2021/11/27 03:16:26;;;;;;;1.90;1.45;;;;;;;4.56;100.00;96270.78;4994460;28;20390;-61
2021/11/27 03:19:10;;;;;;;2.42;1.48;;;;;;;4.54;100.00;96257.31;4994363;28;20045;-63
2021/11/27 03:21:54;;;;;;;1.90;1.05;;;;;;;4.45;100.00;96271.13;4993286;28;20084;-63
2021/11/27 03:24:39;;;;;;;1.65;1.20;;;;;;;4.45;100.00;96260.88;4994006;28;20080;-64
2021/11/27 03:27:23;;;;;;;2.72;1.35;;;;;;;4.50;100.00;96271.41;4980608;28;20096;-65
2021/11/27 03:30:10;;;;;;;1.35;1.00;;;;;;;4.43;100.00;96288.41;4994109;28;20145;-65
2021/11/27 03:32:54;;;;;;;1.88;1.40;;;;;;;4.55;100.00;96261.47;4994323;28;20049;-66
2021/11/27 03:35:40;;;;;;;;;;;;;;;4.43;100.00;96266.16;4994534;28;20100;-63
2021/11/27 03:38:24;;;;;;;0.93;0.80;;;;;;;4.36;100.00;96277.22;4994347;28;19921;-65
2021/11/27 03:41:10;;;;;;;1.48;1.13;;;;;;;4.27;100.00;96280.78;4980272;28;20052;-63
2021/11/27 03:43:53;;;;;;;3.70;1.60;;;;;;;4.34;100.00;96263.75;4994601;28;20109;-65
2021/11/27 03:46:37;;;;;;;;;;;;;;;4.28;100.00;96256.75;4995249;28;20060;-65
2021/11/27 03:49:23;;;;;;;0.87;0.83;;;;;;;4.28;100.00;96270.34;4994160;28;20290;-64
2021/11/27 03:52:08;;;;;;;4.05;1.80;;;;;;;4.33;100.00;96259.59;4993422;28;20133;-64
2021/11/27 03:54:52;;;;;;;2.20;1.70;;;;;;;4.34;100.00;96268.88;4994737;28;20060;-65
2021/11/27 03:57:36;;;;;;;1.48;1.15;;;;;;;4.23;100.00;96272.59;4993519;28;20419;-64
2021/11/27 04:00:20;;;;;;;1.25;1.15;;;;;;;4.23;100.00;96269.22;4994662;28;20471;-64
2021/11/27 04:03:06;;;;;;;5.22;1.70;;;;;;;4.23;100.00;96252.09;4993318;28;20088;-64
2021/11/27 04:05:55;;;;;;;3.50;1.98;;;;;;;4.23;100.00;96261.53;4994378;28;20177;-62
2021/11/27 04:08:39;;;;;;;2.25;1.52;;;;;;;4.22;100.00;96259.94;4993252;28;20048;-62
2021/11/27 04:11:23;;;;;;;1.85;1.75;;;;;;;4.20;100.00;96257.56;4993398;28;20100;-65
2021/11/27 04:14:07;;;;;;;4.15;2.45;;;;;;;4.19;100.00;96261.09;4994696;28;20114;-64
2021/11/27 04:16:51;;;;;;;3.15;1.50;;;;;;;4.21;100.00;96258.34;4994394;28;20519;-65
2021/11/27 04:19:35;;;;;;;3.03;1.73;;;;;;;4.21;100.00;96269.41;4994085;28;20065;-65
2021/11/27 04:22:19;;;;;;;;;;;;;;;4.26;100.00;96266.38;4993444;28;20042;-65
2021/11/27 04:25:04;;;;;;;4.88;2.00;;;;;;;4.24;100.00;96283.63;4979551;28;19949;-64
2021/11/27 04:27:48;;;;;;;3.80;2.63;;;;;;;4.31;100.00;96252.09;4993237;28;20052;-65
2021/11/27 04:30:33;;;;;;;3.17;1.98;;;;;;;4.25;100.00;96265.56;4993947;28;20057;-65
2021/11/27 04:33:17;;;;;;;2.53;1.92;;;;;;;4.28;100.00;96260.09;4993737;28;20153;-63
2021/11/27 04:36:01;;;;;;;2.90;2.03;;;;;;;4.25;100.00;96282.69;4994148;28;20108;-64
2021/11/27 04:38:45;;;;;;;2.65;1.67;;;;;;;4.33;100.00;96290.34;4993078;28;20045;-64
2021/11/27 04:41:29;;;;;;;3.05;2.20;;;;;;;4.39;100.00;96264.88;4993005;28;20474;-65
2021/11/27 04:44:13;;;;;;;2.75;1.90;;;;;;;4.40;100.00;96258.81;4993800;28;20459;-65
2021/11/27 04:46:57;;;;;;;2.63;1.98;;;;;;;4.52;100.00;96266.94;4993038;28;20061;-64
2021/11/27 04:49:41;;;;;;;3.72;2.05;;;;;;;4.55;100.00;96261.47;4993784;28;20053;-65
2021/11/27 04:52:25;;;;;;;3.15;2.08;;;;;;;4.57;100.00;96262.13;4992770;28;20049;-62
2021/11/27 04:55:11;;;;;;;2.50;1.45;;;;;;;4.53;100.00;96278.78;4992932;28;20049;-65
2021/11/27 04:57:55;;;;;;;2.53;1.38;;;;;;;4.47;100.00;96282.00;4992911;28;20041;-65
2021/11/27 05:00:44;;;;;;;2.35;2.10;;;;;;;4.56;100.00;96294.63;4993688;28;20057;-65
2021/11/27 05:03:28;;;;;;;2.65;1.95;;;;;;;4.54;100.00;96282.94;4993341;28;20105;-65
2021/11/27 05:06:12;;;;;;;3.35;1.85;;;;;;;4.62;100.00;96288.84;4993935;28;20044;-65
2021/11/27 05:08:56;;;;;;;1.40;1.30;;;;;;;4.59;100.00;96293.50;4994099;28;20041;-65
2021/11/27 05:11:40;;;;;;;3.33;1.73;;;;;;;4.60;100.00;96288.22;4978965;28;20048;-65
2021/11/27 05:14:24;;;;;;;4.20;1.60;;;;;;;4.52;100.00;96287.44;4992631;28;20048;-65
2021/11/27 05:17:08;;;;;;;2.42;1.52;;;;;;;4.59;100.00;96298.63;4992777;28;20514;-64
2021/11/27 05:19:52;;;;;;;2.20;1.60;;;;;;;4.56;100.00;96298.97;4993023;28;20144;-64
2021/11/27 05:22:36;;;;;;;1.27;1.10;;;;;;;4.53;100.00;96301.84;4993382;28;20575;-65
2021/11/27 05:25:21;;;;;;;2.38;1.58;;;;;;;4.61;100.00;96302.66;4992621;28;20109;-63
2021/11/27 05:28:05;;;;;;;2.40;1.00;;;;;;;4.53;100.00;96317.22;4978941;28;20092;-64
2021/11/27 05:30:49;;;;;;;3.72;1.65;;;;;;;4.64;100.00;96311.75;4993769;28;20046;-65
2021/11/27 05:34:33;;;;;;;1.88;1.35;;;;;;;4.64;100.00;96302.31;4992315;28;20096;-64
2021/11/27 05:36:42;;;;;;;2.17;1.70;;;;;;;4.77;100.00;96291.53;4990518;28;20054;-64
2021/11/27 05:39:26;;;;;;;3.47;0.85;;;;;;;4.68;100.00;96307.91;4978875;28;20057;-64
2021/11/27 05:42:13;;;;;;;1.67;1.20;;;;;;;4.74;100.00;96307.22;4992189;28;20459;-65
2021/11/27 05:44:57;;;;;;;2.65;1.27;;;;;;;4.76;100.00;96313.03;4993986;28;20581;-64
2021/11/27 05:47:42;;;;;;;0.85;0.80;;;;;;;4.74;100.00;96317.50;4996835;28;20053;-63
2021/11/27 05:50:25;;;;;;;1.88;1.45;;;;;;;4.87;100.00;96320.34;4997139;28;20049;-65
2021/11/27 05:53:10;;;;;;;1.30;1.10;;;;;;;4.88;100.00;96314.25;4996916;28;20049;-64
2021/11/27 05:55:54;;;;;;;1.40;1.30;;;;;;;4.95;100.00;96298.03;4995955;28;20104;-63
2021/11/27 05:58:37;;;;;;;1.30;1.20;;;;;;;4.92;100.00;96298.38;4995659;28;20515;-63
2021/11/27 06:01:22;;;;;;;2.08;1.40;;;;;;;4.95;100.00;96308.28;4996720;28;20571;-65
2021/11/27 06:04:06;;;;;;;3.67;1.13;;;;;;;4.94;100.00;96310.03;4996041;28;20052;-65
2021/11/27 06:06:50;;;;;;;1.55;1.20;;;;;;;4.97;100.00;96309.72;4981757;28;20532;-64
2021/11/27 06:09:34;;;;;;;1.92;1.25;;;;;;;4.94;100.00;96315.19;4996475;28;20049;-65
2021/11/27 06:12:18;;;;;;;1.42;1.13;;;;;;;4.92;100.00;96316.31;4996522;28;20137;-64
2021/11/27 06:15:03;;;;;;;;;;;;;;;4.97;100.00;96308.13;4995766;28;20053;-65
2021/11/27 06:17:47;;;;;;;1.15;0.70;;;;;;;4.91;100.00;96321.63;4995604;28;20398;-65
2021/11/27 06:20:31;;;;;;;1.35;1.00;;;;;;;4.97;100.00;96314.06;4996515;28;20554;-65
2021/11/27 06:23:14;;;;;;;1.88;1.15;;;;;;;4.99;100.00;96322.38;4995061;28;20061;-65
2021/11/27 06:25:58;;;;;;;;;;;;;;;5.01;100.00;96331.50;4996834;28;20049;-65
2021/11/27 06:28:42;;;;;;;1.33;1.00;;;;;;;5.03;100.00;96339.84;4995180;28;19921;-64
2021/11/27 06:31:26;;;;;;;1.10;0.90;;;;;;;5.00;100.00;96339.34;4995467;28;20267;-65
2021/11/27 06:34:10;;;;;;;1.58;1.15;;;;;;;5.02;100.00;96338.25;4996221;28;20122;-64
2021/11/27 06:36:54;;;;;;;1.17;0.88;;;;;;;4.97;100.00;96344.03;4996492;28;20142;-64
2021/11/27 06:39:38;;;;;;;1.60;1.10;;;;;;;5.02;100.00;96343.38;4995190;28;20100;-64
2021/11/27 06:42:23;;;;;;;1.35;1.25;;;;;;;5.06;100.00;96339.53;4995989;28;20084;-65
2021/11/27 06:45:07;;;;;;;;;;;;;;;5.03;100.00;96346.75;4996443;28;20122;-65
2021/11/27 06:47:51;;;;;;;1.23;1.00;;;;;;;5.09;100.00;96358.91;4995794;28;19920;-64
2021/11/27 06:50:35;;;;;;;1.42;1.20;;;;;;;5.01;100.00;96362.28;4995662;28;20053;-64
2021/11/27 06:53:19;;;;;;;4.50;1.40;;;;;;;5.08;100.00;96367.56;4995611;28;20069;-64
2021/11/27 06:56:03;;;;;;;1.88;0.93;;;;;;;5.13;100.00;96371.22;4994114;28;20053;-64
2021/11/27 06:58:47;;;;;;;1.23;1.10;;;;;;;5.13;100.00;96378.94;4995439;28;20419;-64
2021/11/27 07:01:31;;;;;;;1.77;1.30;;;;;;;5.16;100.00;96385.50;4995527;28;20049;-65
2021/11/27 07:04:17;;;;;;;;;;;;;;;5.11;100.00;96382.66;4994832;28;20145;-64
2021/11/27 07:07:01;;;;;;;1.75;1.20;;;;;;;5.17;100.00;96387.09;4995643;28;20425;-65
2021/11/27 07:09:45;;;;;;;1.27;1.13;;;;;;;5.18;100.00;96394.63;4994593;28;20093;-65
2021/11/27 07:12:30;;;;;;;1.50;0.95;;;;;;;5.09;100.00;96389.69;4994329;28;20454;-65
2021/11/27 07:15:14;;;;;;;2.22;1.30;;;;;;;5.19;100.00;96400.56;4995314;28;20046;-65
2021/11/27 07:17:58;;;;;;;1.27;1.17;;;;;;;5.12;100.00;96400.41;4994774;28;20122;-65
2021/11/27 07:20:42;;;;;;;3.50;1.35;;;;;;;5.18;100.00;96402.34;4993434;28;20077;-64
2021/11/27 07:23:26;;;;;;;3.85;1.30;;;;;;;5.15;100.00;96417.25;4993251;28;20053;-65
2021/11/27 07:26:09;;;;;;;1.20;1.10;;;;;;;5.08;100.00;96414.56;4994389;28;20049;-65
2021/11/27 07:28:57;;;;;;;2.03;1.35;;;;;;;5.11;100.00;96427.03;4994573;28;20084;-65
2021/11/27 07:31:41;;;;;;;1.45;1.23;;;;;;;5.10;100.00;96427.19;4993069;28;20116;-65
2021/11/27 07:34:25;;;;;;;1.35;1.02;;;;;;;5.02;100.00;96435.72;4994421;28;20048;-65
2021/11/27 07:37:09;;;;;;;1.85;1.33;;;;;;;5.06;100.00;96441.31;4993069;28;20053;-65
2021/11/27 07:39:54;;;;;;;1.45;0.95;;;;;;;5.03;100.00;96428.84;4979568;28;20054;-65
2021/11/27 07:42:39;;;;;;;4.50;1.20;;;;;;;5.10;100.00;96443.41;4994058;28;20054;-64
2021/11/27 07:45:23;;;;;;;1.55;0.80;;;;;;;5.08;100.00;96442.78;4994834;28;20447;-64
2021/11/27 07:48:07;;;;;;;1.98;1.13;;;;;;;5.23;100.00;96446.25;4993566;28;20156;-63
2021/11/27 07:50:51;;;;;;;2.55;1.20;;;;;;;5.29;100.00;96455.88;4979409;28;20065;-65
2021/11/27 07:53:36;;;;;;;2.20;1.20;;;;;;;5.25;100.00;96461.50;4993286;28;20098;-64
2021/11/27 07:56:20;;;;;;;1.20;0.90;;;;;;;5.31;100.00;96466.75;4993102;28;20480;-65
2021/11/27 07:59:04;;;;;;;1.67;0.85;;;;;;;5.27;100.00;96470.63;4993819;28;20126;-65
2021/11/27 08:01:49;;;;;;;2.80;1.20;;;;;;;5.41;100.00;96469.13;4992404;28;20108;-64
2021/11/27 08:04:33;;;;;;;1.02;0.85;;;;;;;5.41;100.00;96469.94;4994145;28;20463;-64
2021/11/27 08:07:17;;;;;;;1.02;0.88;;;;;;;5.42;100.00;96484.38;4992595;28;20080;-65
2021/11/27 08:10:09;;;;;;;1.20;1.05;;;;;;;5.48;100.00;96478.59;4993964;28;20100;-64
2021/11/27 08:12:54;;;;;;;1.30;1.00;;;;;;;5.44;100.00;96486.78;4993516;28;20057;-65
2021/11/27 08:15:38;;;;;;;1.35;1.10;;;;;;;5.46;100.00;96480.50;4993538;28;20057;-64
2021/11/27 08:18:22;;;;;;;1.38;1.00;;;;;;;5.53;100.00;96481.47;4993648;28;20097;-65
2021/11/27 08:21:06;;;;;;;1.38;1.05;;;;;;;5.51;100.00;96483.41;4993664;28;20164;-64
2021/11/27 08:23:50;;;;;;;1.10;0.90;;;;;;;5.55;100.00;96494.91;4992222;28;20052;-65
2021/11/27 08:26:34;;;;;;;2.53;0.98;;;;;;;5.56;100.00;96499.09;4992487;28;20491;-65
2021/11/27 08:29:18;;;;;;;2.08;1.40;;;;;;;5.58;100.00;96493.78;4992294;28;20053;-64
2021/11/27 08:32:02;;;;;;;0.50;0.50;;;;;;;5.53;100.00;96496.84;4992284;28;20053;-66
2021/11/27 08:34:47;;;;;;;1.27;1.10;;;;;;;5.65;100.00;96505.81;4992377;28;20048;-65
2021/11/27 08:37:31;;;;;;;3.42;0.93;;;;;;;5.61;100.00;96512.25;4978996;28;20099;-65
2021/11/27 08:40:16;;;;;;;2.33;1.10;;;;;;;5.64;100.00;96514.47;4993200;28;20148;-65
2021/11/27 08:43:01;;;;;;;1.65;0.90;;;;;;;5.81;100.00;96516.06;4992987;28;20061;-65
2021/11/27 08:45:45;;;;;;;1.25;1.00;;;;;;;5.75;100.00;96521.81;4993283;28;20085;-66
2021/11/27 08:48:29;;;;;;;1.75;1.10;;;;;;;5.73;100.00;96528.91;4992337;28;20052;-65
2021/11/27 08:51:13;;;;;;;1.20;1.05;;;;;;;5.68;100.00;96520.09;4993098;28;20192;-66
2021/11/27 08:53:57;;;;;;;1.38;1.02;;;;;;;5.74;100.00;96519.44;4992227;28;20127;-64
2021/11/27 08:56:42;;;;;;;2.08;1.17;;;;;;;5.72;100.00;96522.16;4993089;28;20077;-65
2021/11/27 08:59:26;;;;;;;2.40;1.10;;;;;;;5.69;100.00;96527.63;4993034;28;20081;-62
2021/11/27 09:02:11;;;;;;;3.97;1.10;;;;;;;5.73;100.00;96528.91;4991903;28;20052;-65
2021/11/27 09:04:55;;;;;;;1.55;1.23;;;;;;;5.65;100.00;96535.84;4991951;28;20073;-65
2021/11/27 09:07:39;;;;;;;1.30;1.10;;;;;;;5.59;100.00;96537.28;4992154;28;20502;-64
2021/11/27 09:10:23;;;;;;;1.98;1.20;;;;;;;5.67;100.00;96544.97;4992103;28;20097;-65
2021/11/27 09:13:07;;;;;;;1.90;1.00;;;;;;;5.60;100.00;96548.34;4992857;28;20045;-63
2021/11/27 09:15:51;;;;;;;2.75;0.90;;;;;;;5.55;100.00;96556.53;4992051;28;20049;-62
2021/11/27 09:18:34;;;;;;;1.23;1.00;;;;;;;5.62;100.00;96547.22;4993310;28;20100;-66
2021/11/27 09:21:18;;;;;;;;;;;;;;;5.80;100.00;96540.16;4995137;28;20133;-64
2021/11/27 09:24:03;;;;;;;1.20;1.10;;;;;;;5.99;100.00;96560.31;4997083;28;19924;-66
2021/11/27 09:26:48;;;;;;;1.60;1.05;;;;;;;5.85;100.00;96566.13;4996879;28;20128;-64
2021/11/27 09:29:33;;;;;;;1.05;0.95;;;;;;;5.77;100.00;96560.97;4996501;28;20197;-64
2021/11/27 09:32:19;;;;;;;0.47;0.47;;;;;;;5.62;100.00;96567.78;4996684;28;20049;-65
2021/11/27 09:35:04;;;;;;;2.83;0.73;;;;;;;5.63;100.00;96566.81;4995334;28;20494;-61
2021/11/27 09:37:48;;;;;;;1.30;1.20;;;;;;;5.80;100.00;96562.44;4996890;28;20116;-65
2021/11/27 09:40:38;;;;;;;1.15;1.05;;;;;;;5.68;100.00;96571.44;4981478;28;20054;-65
2021/11/27 09:43:22;;;;;;;1.77;1.02;;;;;;;5.61;100.00;96579.00;4981238;28;20125;-65
2021/11/27 09:46:06;;;;;;;0.80;0.75;;;;;;;5.52;100.00;96571.50;4995682;28;20511;-65
2021/11/27 09:48:54;;;;;;;0.60;0.52;;;;;;;5.42;100.00;96574.22;4981332;28;20420;-65
2021/11/27 09:51:39;;;;;;;2.65;1.23;;;;;;;5.47;100.00;96574.56;4981304;28;20140;-65
2021/11/27 09:54:23;;;;;;;1.60;1.05;;;;;;;5.45;100.00;96583.38;4994984;28;20045;-65
2021/11/27 09:57:09;;;;;;;1.85;1.20;;;;;;;5.52;100.00;96579.97;4995863;28;20072;-64
2021/11/27 09:59:53;;;;;;;1.60;1.20;;;;;;;5.51;100.00;96580.13;4996200;28;20053;-65
2021/11/27 10:02:37;;;;;;;;;;;;;;;5.54;100.00;96584.97;4996106;28;20073;-64
2021/11/27 10:05:22;;;;;;;1.27;0.90;;;;;;;5.63;100.00;96584.00;4995156;28;19924;-64
2021/11/27 10:08:06;;;;;;;1.30;1.02;;;;;;;5.62;100.00;96584.94;4995753;28;20178;-65
2021/11/27 10:10:50;;;;;;;2.03;1.00;;;;;;;5.69;100.00;96589.28;4994968;28;20049;-65
2021/11/27 10:13:34;;;;;;;2.17;1.00;;;;;;;5.65;100.00;96597.47;4995860;28;20122;-63
2021/11/27 10:16:19;;;;;;;1.08;0.80;;;;;;;5.79;100.00;96597.63;4994792;28;20058;-65
2021/11/27 10:19:05;;;;;;;1.35;1.08;;;;;;;5.63;100.00;96602.75;4995895;28;20152;-64
2021/11/27 10:21:54;;;;;;;1.23;1.00;;;;;;;5.66;100.00;96599.84;4995588;28;20057;-62
2021/11/27 10:24:39;;;;;;;1.15;1.00;;;;;;;5.66;100.00;96599.84;4994824;28;20518;-64
2021/11/27 10:27:26;;;;;;;1.30;1.08;;;;;;;5.69;100.00;96604.69;4980601;28;20054;-60
2021/11/27 10:30:12;;;;;;;1.80;1.20;;;;;;;5.69;100.00;96604.69;4980626;28;20530;-66
2021/11/27 10:32:57;;;;;;;1.35;0.90;;;;;;;5.69;100.00;96604.69;4995329;28;20077;-65
2021/11/27 10:36:03;;;;;;;1.10;1.00;;;;;;;5.73;100.00;96605.16;4995514;28;20080;-67
2021/11/27 10:38:51;;;;;;;2.10;0.95;;;;;;;5.72;100.00;96619.75;4994446;28;20053;-64
2021/11/27 10:41:36;;;;;;;1.10;1.00;;;;;;;5.65;100.00;96618.78;4994075;28;20423;-66
2021/11/27 10:44:26;;;;;;;0.77;0.75;;;;;;;5.59;100.00;96623.78;4994676;28;20129;-65
2021/11/27 10:47:15;;;;;;;1.00;0.90;;;;;;;5.56;100.00;96624.09;4995492;28;20388;-64
2021/11/27 10:50:04;;;;;;;1.10;1.00;;;;;;;5.58;100.00;96628.13;4995194;28;20052;-67
2021/11/27 10:52:49;;;;;;;1.15;1.05;;;;;;;5.53;100.00;96632.94;4994949;28;20101;-64
2021/11/27 10:55:34;;;;;;;1.83;0.95;;;;;;;5.57;100.00;96626.53;4980692;28;20061;-65
2021/11/27 10:58:18;;;;;;;1.20;1.08;;;;;;;5.65;100.00;96634.19;4994021;28;20117;-64
2021/11/27 11:01:02;;;;;;;1.38;0.90;;;;;;;5.55;100.00;96633.56;4994131;28;20399;-64
2021/11/27 11:03:47;;;;;;;;;;;;;;;5.65;100.00;96641.91;4994453;28;20144;-64
2021/11/27 11:06:31;;;;;;;;;;;;;;;5.66;100.00;96646.06;4995594;28;19975;-64
2021/11/27 11:09:16;;;;;;;1.10;0.80;;;;;;;5.61;100.00;96642.38;4995018;28;19956;-66
2021/11/27 11:11:59;;;;;;;1.17;0.90;;;;;;;5.61;100.00;96637.25;4994961;28;20064;-66
2021/11/27 11:14:43;;;;;;;;;;;;;;;5.76;100.00;96636.44;4995241;28;20092;-63
2021/11/27 11:17:27;;;;;;;2.87;1.10;;;;;;;5.62;100.00;96638.84;4979887;28;19920;-65
2021/11/27 11:20:13;;;;;;;1.55;1.30;;;;;;;5.65;100.00;96634.19;4979822;28;20322;-65
2021/11/27 11:23:00;;;;;;;2.40;1.33;;;;;;;5.63;100.00;96646.41;4993564;28;20080;-63
2021/11/27 11:25:57;;;;;;;2.50;1.55;;;;;;;5.69;100.00;96639.81;4979750;28;20098;-65
2021/11/27 11:28:48;;;;;;;2.05;1.40;;;;;;;5.89;100.00;96643.66;4994546;28;20054;-65
2021/11/27 11:31:35;;;;;;;2.58;1.40;;;;;;;5.69;100.00;96643.19;4993125;28;20411;-64
2021/11/27 11:34:19;;;;;;;1.48;1.30;;;;;;;5.67;100.00;96657.97;4979646;28;20108;-64
2021/11/27 11:37:03;;;;;;;1.90;1.20;;;;;;;5.79;100.00;96656.69;4993306;28;20049;-64
2021/11/27 11:39:47;;;;;;;;;;;;;;;5.80;100.00;96658.31;4993732;28;20053;-65
2021/11/27 11:42:32;;;;;;;2.00;1.23;;;;;;;6.05;100.00;96657.28;4992429;28;20032;-66
2021/11/27 11:45:16;;;;;;;2.55;1.13;;;;;;;5.96;100.00;96668.53;4992974;28;20101;-65
2021/11/27 11:48:00;;;;;;;2.88;1.40;;;;;;;5.78;100.00;96665.34;4994466;28;20081;-65
2021/11/27 11:50:45;;;;;;;1.30;1.20;;;;;;;5.92;100.00;96667.25;4993962;28;20073;-67
2021/11/27 11:53:47;;;;;;;3.05;1.60;;;;;;;5.82;100.00;96674.34;4993860;28;20052;-66
2021/11/27 11:56:34;;;;;;;1.58;1.35;;;;;;;5.75;100.00;96670.78;4994090;28;20084;-67
2021/11/27 11:59:19;;;;;;;3.17;1.42;;;;;;;5.64;100.00;96673.69;4993007;28;20502;-65
2021/11/27 12:02:11;;;;;;;2.47;1.90;;;;;;;5.63;100.00;96672.06;4992488;28;20053;-66
2021/11/27 12:05:15;;;;;;;3.42;1.70;;;;;;;5.59;100.00;96673.38;4992522;28;20108;-67
2021/11/27 12:08:01;;;;;;;5.60;1.87;;;;;;;5.44;100.00;96677.53;4993909;28;20104;-66
2021/11/27 12:10:46;;;;;;;3.80;2.35;;;;;;;5.48;100.00;96683.16;4993546;28;20046;-66
2021/11/27 12:13:33;;;;;;;4.43;2.60;;;;;;;5.49;100.00;96680.44;4993429;28;20053;-66
2021/11/27 12:16:17;;;;;;;4.45;2.58;;;;;;;5.56;100.00;96676.25;4992419;28;20526;-66
2021/11/27 12:19:08;;;;;;;;;;;;;;;5.57;100.00;96683.00;4994292;28;20101;-65
2021/11/27 12:22:34;;;;;;;3.70;2.30;;;;;;;5.58;100.00;96683.78;4992524;28;20283;-66
2021/11/27 12:25:19;;;;;;;3.63;2.30;;;;;;;5.50;100.00;96692.31;4993438;28;20539;-67
2021/11/27 12:28:10;;;;;;;3.92;2.42;;;;;;;5.45;100.00;96704.81;4978639;28;20049;-64
2021/11/27 12:30:56;;;;;;;3.58;2.60;;;;;;;5.60;100.00;96700.66;4993411;28;20041;-65
2021/11/27 12:33:45;;;;;;;4.10;2.70;;;;;;;5.58;100.00;96712.03;4992431;28;20499;-65
2021/11/27 12:36:30;;;;;;;3.40;2.40;;;;;;;5.53;100.00;96709.94;4992092;28;20137;-65
2021/11/27 12:39:20;;;;;;;3.33;2.47;;;;;;;5.58;100.00;96710.28;4993111;28;20057;-65
2021/11/27 12:42:03;;;;;;;4.03;3.08;;;;;;;5.51;100.00;96729.84;4993430;28;20522;-65
2021/11/27 12:44:53;;;;;;;5.20;2.80;;;;;;;5.40;100.00;96724.22;4993033;28;20045;-66
2021/11/27 12:47:38;;;;;;;6.50;3.45;;;;;;;5.55;100.00;96726.00;4978403;28;20510;-65
2021/11/27 12:50:23;;;;;;;3.90;2.83;;;;;;;5.33;100.00;96734.31;4992165;28;20392;-64
2021/11/27 12:53:09;;;;;;;5.40;3.13;;;;;;;5.35;100.00;96729.81;4992074;28;20391;-64
2021/11/27 12:55:59;;;;;;;5.72;3.90;;;;;;;5.24;100.00;96737.81;4995844;28;20052;-65
2021/11/27 12:58:43;;;;;;;6.78;3.90;;;;;;;5.28;100.00;96740.88;4997338;28;20045;-65
2021/11/27 13:01:32;;;;;;;5.03;3.40;;;;;;;5.22;100.00;96754.38;4982255;28;20511;-65
2021/11/27 13:04:19;;;;;;;5.78;3.90;;;;;;;5.20;100.00;96754.50;4995831;28;20111;-65